sensor_id;sensor_type;location;lat;lon;timestamp;P1;durP1;ratioP1;P2;durP2;ratioP2
52554;SDS011;38455;52.710;6.502;2023-03-21T00:00:59;59.90;;;27.88;;
52554;SDS011;38455;52.710;6.502;2023-03-21T00:05:54;64.03;;;28.27;;
52554;SDS011;38455;52.710;6.502;2023-03-21T00:08:20;65.47;;;29.75;;
52554;SDS011;38455;52.710;6.502;2023-03-21T00:10:53;68.07;;;30.48;;
52554;SDS011;38455;52.710;6.502;2023-03-21T00:13:23;71.10;;;33.50;;
52554;SDS011;38455;52.710;6.502;2023-03-21T00:15:50;68.57;;;30.83;;
52554;SDS011;38455;52.710;6.502;2023-03-21T00:18:19;67.25;;;31.52;;
52554;SDS011;38455;52.710;6.502;2023-03-21T00:20:56;70.25;;;32.72;;
52554;SDS011;38455;52.710;6.502;2023-03-21T00:23:24;69.65;;;31.70;;
52554;SDS011;38455;52.710;6.502;2023-03-21T00:25:50;71.35;;;33.25;;
52554;SDS011;38455;52.710;6.502;2023-03-21T00:28:16;68.00;;;32.40;;
52554;SDS011;38455;52.710;6.502;2023-03-21T00:30:41;68.03;;;33.45;;
52554;SDS011;38455;52.710;6.502;2023-03-21T00:33:07;64.85;;;30.98;;
52554;SDS011;38455;52.710;6.502;2023-03-21T00:35:33;64.40;;;30.77;;
52554;SDS011;38455;52.710;6.502;2023-03-21T00:37:58;68.80;;;31.10;;
52554;SDS011;38455;52.710;6.502;2023-03-21T00:40:24;66.20;;;30.75;;
52554;SDS011;38455;52.710;6.502;2023-03-21T00:42:50;63.58;;;31.52;;
52554;SDS011;38455;52.710;6.502;2023-03-21T00:45:15;58.97;;;27.77;;
52554;SDS011;38455;52.710;6.502;2023-03-21T00:47:43;64.30;;;29.17;;
52554;SDS011;38455;52.710;6.502;2023-03-21T00:50:09;60.85;;;28.95;;
52554;SDS011;38455;52.710;6.502;2023-03-21T00:52:36;60.42;;;28.38;;
52554;SDS011;38455;52.710;6.502;2023-03-21T00:55:03;60.13;;;28.00;;
52554;SDS011;38455;52.710;6.502;2023-03-21T00:57:30;59.50;;;28.42;;
52554;SDS011;38455;52.710;6.502;2023-03-21T00:59:56;60.67;;;27.67;;
52554;SDS011;38455;52.710;6.502;2023-03-21T01:02:23;61.63;;;28.50;;
52554;SDS011;38455;52.710;6.502;2023-03-21T01:04:51;65.93;;;28.35;;
52554;SDS011;38455;52.710;6.502;2023-03-21T01:07:18;57.80;;;26.08;;
52554;SDS011;38455;52.710;6.502;2023-03-21T01:09:43;58.20;;;26.27;;
52554;SDS011;38455;52.710;6.502;2023-03-21T01:12:09;59.08;;;26.98;;
52554;SDS011;38455;52.710;6.502;2023-03-21T01:14:35;57.00;;;24.63;;
52554;SDS011;38455;52.710;6.502;2023-03-21T01:17:01;59.50;;;25.15;;
52554;SDS011;38455;52.710;6.502;2023-03-21T01:19:27;56.88;;;24.85;;
52554;SDS011;38455;52.710;6.502;2023-03-21T01:21:53;52.53;;;24.55;;
52554;SDS011;38455;52.710;6.502;2023-03-21T01:24:19;54.03;;;23.70;;
52554;SDS011;38455;52.710;6.502;2023-03-21T01:26:45;47.90;;;22.25;;
52554;SDS011;38455;52.710;6.502;2023-03-21T01:29:11;47.42;;;22.65;;
52554;SDS011;38455;52.710;6.502;2023-03-21T01:31:36;43.95;;;22.13;;
52554;SDS011;38455;52.710;6.502;2023-03-21T01:34:02;46.28;;;22.23;;
52554;SDS011;38455;52.710;6.502;2023-03-21T01:36:28;44.83;;;21.02;;
52554;SDS011;38455;52.710;6.502;2023-03-21T01:38:54;44.72;;;21.05;;
52554;SDS011;38455;52.710;6.502;2023-03-21T01:43:53;44.60;;;21.63;;
52554;SDS011;38455;52.710;6.502;2023-03-21T01:51:45;40.83;;;20.90;;
52554;SDS011;38455;52.710;6.502;2023-03-21T01:54:16;43.75;;;20.35;;
52554;SDS011;38455;52.710;6.502;2023-03-21T01:56:48;48.58;;;20.90;;
52554;SDS011;38455;52.710;6.502;2023-03-21T01:59:26;54.03;;;23.35;;
52554;SDS011;38455;52.710;6.502;2023-03-21T02:01:59;42.67;;;21.20;;
52554;SDS011;38455;52.710;6.502;2023-03-21T02:04:32;46.50;;;21.60;;
52554;SDS011;38455;52.710;6.502;2023-03-21T02:06:59;41.60;;;21.17;;
52554;SDS011;38455;52.710;6.502;2023-03-21T02:09:32;42.47;;;20.58;;
52554;SDS011;38455;52.710;6.502;2023-03-21T02:12:00;42.45;;;21.00;;
52554;SDS011;38455;52.710;6.502;2023-03-21T02:14:26;43.38;;;20.33;;
52554;SDS011;38455;52.710;6.502;2023-03-21T02:16:59;48.38;;;20.60;;
52554;SDS011;38455;52.710;6.502;2023-03-21T02:25:20;45.30;;;21.27;;
52554;SDS011;38455;52.710;6.502;2023-03-21T02:38:50;42.08;;;19.80;;
52554;SDS011;38455;52.710;6.502;2023-03-21T02:41:32;42.72;;;21.33;;
52554;SDS011;38455;52.710;6.502;2023-03-21T02:44:18;42.03;;;20.38;;
52554;SDS011;38455;52.710;6.502;2023-03-21T02:52:10;39.70;;;19.60;;
52554;SDS011;38455;52.710;6.502;2023-03-21T02:54:41;42.88;;;20.83;;
52554;SDS011;38455;52.710;6.502;2023-03-21T02:57:08;39.10;;;19.70;;
52554;SDS011;38455;52.710;6.502;2023-03-21T02:59:34;42.15;;;20.77;;
52554;SDS011;38455;52.710;6.502;2023-03-21T03:02:02;36.40;;;19.10;;
52554;SDS011;38455;52.710;6.502;2023-03-21T03:04:29;38.50;;;19.75;;
52554;SDS011;38455;52.710;6.502;2023-03-21T03:23:40;43.08;;;20.42;;
52554;SDS011;38455;52.710;6.502;2023-03-21T03:26:18;33.47;;;18.52;;
52554;SDS011;38455;52.710;6.502;2023-03-21T03:28:51;37.92;;;20.08;;
52554;SDS011;38455;52.710;6.502;2023-03-21T03:31:24;34.42;;;18.38;;
52554;SDS011;38455;52.710;6.502;2023-03-21T03:33:55;37.22;;;18.55;;
52554;SDS011;38455;52.710;6.502;2023-03-21T03:36:26;33.45;;;17.98;;
52554;SDS011;38455;52.710;6.502;2023-03-21T03:38:58;35.70;;;18.73;;
52554;SDS011;38455;52.710;6.502;2023-03-21T03:41:28;34.28;;;17.58;;
52554;SDS011;38455;52.710;6.502;2023-03-21T03:43:57;38.80;;;18.83;;
52554;SDS011;38455;52.710;6.502;2023-03-21T03:48:59;37.85;;;19.00;;
52554;SDS011;38455;52.710;6.502;2023-03-21T03:51:34;37.33;;;19.33;;
52554;SDS011;38455;52.710;6.502;2023-03-21T03:54:07;37.10;;;19.58;;
52554;SDS011;38455;52.710;6.502;2023-03-21T03:56:41;38.10;;;19.77;;
52554;SDS011;38455;52.710;6.502;2023-03-21T03:59:08;38.70;;;19.35;;
52554;SDS011;38455;52.710;6.502;2023-03-21T04:01:34;38.78;;;20.17;;
52554;SDS011;38455;52.710;6.502;2023-03-21T04:03:59;40.38;;;20.05;;
52554;SDS011;38455;52.710;6.502;2023-03-21T04:06:26;41.28;;;20.10;;
52554;SDS011;38455;52.710;6.502;2023-03-21T04:08:53;39.03;;;19.63;;
52554;SDS011;38455;52.710;6.502;2023-03-21T04:11:20;35.35;;;19.92;;
52554;SDS011;38455;52.710;6.502;2023-03-21T04:13:47;37.65;;;19.52;;
52554;SDS011;38455;52.710;6.502;2023-03-21T04:16:13;37.80;;;20.35;;
52554;SDS011;38455;52.710;6.502;2023-03-21T04:18:39;38.60;;;19.35;;
52554;SDS011;38455;52.710;6.502;2023-03-21T04:21:09;36.47;;;20.10;;
52554;SDS011;38455;52.710;6.502;2023-03-21T04:23:37;35.30;;;19.95;;
52554;SDS011;38455;52.710;6.502;2023-03-21T04:26:03;42.50;;;21.92;;
52554;SDS011;38455;52.710;6.502;2023-03-21T04:28:30;39.17;;;21.00;;
52554;SDS011;38455;52.710;6.502;2023-03-21T04:30:56;36.83;;;19.65;;
52554;SDS011;38455;52.710;6.502;2023-03-21T04:33:22;40.53;;;21.10;;
52554;SDS011;38455;52.710;6.502;2023-03-21T04:35:51;37.75;;;22.05;;
52554;SDS011;38455;52.710;6.502;2023-03-21T04:38:21;40.47;;;21.75;;
52554;SDS011;38455;52.710;6.502;2023-03-21T04:40:47;45.67;;;24.63;;
52554;SDS011;38455;52.710;6.502;2023-03-21T04:43:13;46.95;;;23.90;;
52554;SDS011;38455;52.710;6.502;2023-03-21T04:45:39;46.47;;;24.75;;
52554;SDS011;38455;52.710;6.502;2023-03-21T04:48:05;45.70;;;25.38;;
52554;SDS011;38455;52.710;6.502;2023-03-21T04:50:30;52.20;;;26.67;;
52554;SDS011;38455;52.710;6.502;2023-03-21T04:52:56;48.90;;;26.15;;
52554;SDS011;38455;52.710;6.502;2023-03-21T04:55:22;51.25;;;26.63;;
52554;SDS011;38455;52.710;6.502;2023-03-21T04:57:50;49.17;;;27.55;;
52554;SDS011;38455;52.710;6.502;2023-03-21T05:00:16;52.10;;;26.95;;
52554;SDS011;38455;52.710;6.502;2023-03-21T05:02:42;51.92;;;27.48;;
52554;SDS011;38455;52.710;6.502;2023-03-21T05:05:08;50.45;;;27.42;;
52554;SDS011;38455;52.710;6.502;2023-03-21T05:07:39;59.60;;;29.17;;
52554;SDS011;38455;52.710;6.502;2023-03-21T05:10:06;53.53;;;28.08;;
52554;SDS011;38455;52.710;6.502;2023-03-21T05:12:33;50.45;;;27.17;;
52554;SDS011;38455;52.710;6.502;2023-03-21T05:14:59;51.78;;;27.50;;
52554;SDS011;38455;52.710;6.502;2023-03-21T05:17:24;60.78;;;29.17;;
52554;SDS011;38455;52.710;6.502;2023-03-21T05:19:52;53.60;;;28.20;;
52554;SDS011;38455;52.710;6.502;2023-03-21T05:22:20;52.83;;;28.73;;
52554;SDS011;38455;52.710;6.502;2023-03-21T05:24:48;52.00;;;29.00;;
52554;SDS011;38455;52.710;6.502;2023-03-21T05:27:18;54.72;;;29.05;;
52554;SDS011;38455;52.710;6.502;2023-03-21T05:30:05;52.90;;;28.38;;
52554;SDS011;38455;52.710;6.502;2023-03-21T05:32:34;52.90;;;28.45;;
52554;SDS011;38455;52.710;6.502;2023-03-21T05:35:00;53.28;;;27.85;;
52554;SDS011;38455;52.710;6.502;2023-03-21T05:37:26;58.75;;;28.92;;
52554;SDS011;38455;52.710;6.502;2023-03-21T05:39:52;54.35;;;29.17;;
52554;SDS011;38455;52.710;6.502;2023-03-21T05:42:18;61.83;;;29.00;;
52554;SDS011;38455;52.710;6.502;2023-03-21T05:44:44;56.10;;;29.15;;
52554;SDS011;38455;52.710;6.502;2023-03-21T05:47:14;55.88;;;29.98;;
52554;SDS011;38455;52.710;6.502;2023-03-21T05:49:41;51.05;;;28.42;;
52554;SDS011;38455;52.710;6.502;2023-03-21T05:52:07;55.85;;;28.67;;
52554;SDS011;38455;52.710;6.502;2023-03-21T05:54:33;57.17;;;29.60;;
52554;SDS011;38455;52.710;6.502;2023-03-21T05:57:00;54.30;;;28.02;;
52554;SDS011;38455;52.710;6.502;2023-03-21T05:59:26;59.70;;;28.20;;
52554;SDS011;38455;52.710;6.502;2023-03-21T06:01:52;51.90;;;27.35;;
52554;SDS011;38455;52.710;6.502;2023-03-21T06:04:17;57.58;;;27.15;;
52554;SDS011;38455;52.710;6.502;2023-03-21T06:06:43;56.15;;;26.83;;
52554;SDS011;38455;52.710;6.502;2023-03-21T06:09:09;54.15;;;26.35;;
52554;SDS011;38455;52.710;6.502;2023-03-21T06:11:35;50.90;;;26.30;;
52554;SDS011;38455;52.710;6.502;2023-03-21T06:14:02;51.20;;;25.55;;
52554;SDS011;38455;52.710;6.502;2023-03-21T06:16:27;45.67;;;23.88;;
52554;SDS011;38455;52.710;6.502;2023-03-21T06:18:54;47.03;;;24.42;;
52554;SDS011;38455;52.710;6.502;2023-03-21T06:21:20;38.92;;;20.75;;
52554;SDS011;38455;52.710;6.502;2023-03-21T06:23:46;39.58;;;21.80;;
52554;SDS011;38455;52.710;6.502;2023-03-21T06:26:12;36.88;;;20.63;;
52554;SDS011;38455;52.710;6.502;2023-03-21T06:28:38;34.00;;;19.38;;
52554;SDS011;38455;52.710;6.502;2023-03-21T06:31:04;33.30;;;17.45;;
52554;SDS011;38455;52.710;6.502;2023-03-21T06:33:30;33.33;;;17.17;;
52554;SDS011;38455;52.710;6.502;2023-03-21T06:35:57;33.10;;;18.55;;
52554;SDS011;38455;52.710;6.502;2023-03-21T06:38:23;32.05;;;17.92;;
52554;SDS011;38455;52.710;6.502;2023-03-21T06:40:50;33.22;;;18.15;;
52554;SDS011;38455;52.710;6.502;2023-03-21T06:43:15;30.45;;;16.45;;
52554;SDS011;38455;52.710;6.502;2023-03-21T06:45:41;31.23;;;16.67;;
52554;SDS011;38455;52.710;6.502;2023-03-21T06:48:07;31.02;;;17.77;;
52554;SDS011;38455;52.710;6.502;2023-03-21T06:50:33;31.98;;;17.73;;
52554;SDS011;38455;52.710;6.502;2023-03-21T06:52:59;32.42;;;17.58;;
52554;SDS011;38455;52.710;6.502;2023-03-21T06:55:25;31.90;;;18.15;;
52554;SDS011;38455;52.710;6.502;2023-03-21T06:57:53;33.25;;;17.88;;
52554;SDS011;38455;52.710;6.502;2023-03-21T07:00:20;29.60;;;17.90;;
52554;SDS011;38455;52.710;6.502;2023-03-21T07:02:47;31.17;;;18.08;;
52554;SDS011;38455;52.710;6.502;2023-03-21T07:05:13;32.78;;;17.65;;
52554;SDS011;38455;52.710;6.502;2023-03-21T07:07:39;29.13;;;18.38;;
52554;SDS011;38455;52.710;6.502;2023-03-21T07:10:05;31.75;;;19.00;;
52554;SDS011;38455;52.710;6.502;2023-03-21T07:12:31;32.50;;;18.95;;
52554;SDS011;38455;52.710;6.502;2023-03-21T07:15:03;35.58;;;19.23;;
52554;SDS011;38455;52.710;6.502;2023-03-21T07:17:31;32.15;;;18.48;;
52554;SDS011;38455;52.710;6.502;2023-03-21T07:19:57;32.35;;;18.83;;
52554;SDS011;38455;52.710;6.502;2023-03-21T07:22:23;35.47;;;19.70;;
52554;SDS011;38455;52.710;6.502;2023-03-21T07:24:49;33.30;;;18.58;;
52554;SDS011;38455;52.710;6.502;2023-03-21T07:27:15;34.47;;;19.98;;
52554;SDS011;38455;52.710;6.502;2023-03-21T07:29:42;34.42;;;18.40;;
52554;SDS011;38455;52.710;6.502;2023-03-21T07:32:08;35.50;;;19.25;;
52554;SDS011;38455;52.710;6.502;2023-03-21T07:34:35;35.08;;;19.38;;
52554;SDS011;38455;52.710;6.502;2023-03-21T07:37:02;33.28;;;18.30;;
52554;SDS011;38455;52.710;6.502;2023-03-21T07:39:28;35.33;;;19.27;;
52554;SDS011;38455;52.710;6.502;2023-03-21T07:41:54;35.58;;;19.55;;
52554;SDS011;38455;52.710;6.502;2023-03-21T07:44:20;35.72;;;19.05;;
52554;SDS011;38455;52.710;6.502;2023-03-21T07:46:47;35.25;;;18.95;;
52554;SDS011;38455;52.710;6.502;2023-03-21T07:49:12;32.67;;;20.30;;
52554;SDS011;38455;52.710;6.502;2023-03-21T07:51:38;34.92;;;19.27;;
52554;SDS011;38455;52.710;6.502;2023-03-21T07:54:03;31.70;;;19.00;;
52554;SDS011;38455;52.710;6.502;2023-03-21T07:56:30;31.27;;;18.17;;
52554;SDS011;38455;52.710;6.502;2023-03-21T07:58:56;35.97;;;17.80;;
52554;SDS011;38455;52.710;6.502;2023-03-21T08:01:23;31.25;;;18.42;;
52554;SDS011;38455;52.710;6.502;2023-03-21T08:03:49;39.22;;;19.25;;
52554;SDS011;38455;52.710;6.502;2023-03-21T08:06:18;31.73;;;19.23;;
52554;SDS011;38455;52.710;6.502;2023-03-21T08:08:44;34.47;;;18.83;;
52554;SDS011;38455;52.710;6.502;2023-03-21T08:11:10;32.17;;;19.42;;
52554;SDS011;38455;52.710;6.502;2023-03-21T08:13:37;33.80;;;18.45;;
52554;SDS011;38455;52.710;6.502;2023-03-21T08:16:03;35.10;;;19.38;;
52554;SDS011;38455;52.710;6.502;2023-03-21T08:18:29;35.83;;;19.75;;
52554;SDS011;38455;52.710;6.502;2023-03-21T08:20:55;30.30;;;18.55;;
52554;SDS011;38455;52.710;6.502;2023-03-21T08:23:22;34.33;;;18.42;;
52554;SDS011;38455;52.710;6.502;2023-03-21T08:25:52;30.92;;;17.42;;
52554;SDS011;38455;52.710;6.502;2023-03-21T08:28:19;34.67;;;19.05;;
52554;SDS011;38455;52.710;6.502;2023-03-21T08:30:45;35.55;;;18.63;;
52554;SDS011;38455;52.710;6.502;2023-03-21T08:33:10;32.00;;;18.35;;
52554;SDS011;38455;52.710;6.502;2023-03-21T08:35:37;37.38;;;17.67;;
52554;SDS011;38455;52.710;6.502;2023-03-21T08:38:03;34.78;;;17.83;;
52554;SDS011;38455;52.710;6.502;2023-03-21T08:40:29;38.88;;;18.63;;
52554;SDS011;38455;52.710;6.502;2023-03-21T08:42:55;31.50;;;17.67;;
52554;SDS011;38455;52.710;6.502;2023-03-21T08:45:21;29.75;;;16.73;;
52554;SDS011;38455;52.710;6.502;2023-03-21T08:47:47;35.30;;;17.33;;
52554;SDS011;38455;52.710;6.502;2023-03-21T08:50:15;30.70;;;16.40;;
52554;SDS011;38455;52.710;6.502;2023-03-21T08:52:43;33.72;;;17.13;;
52554;SDS011;38455;52.710;6.502;2023-03-21T08:55:09;33.00;;;16.55;;
52554;SDS011;38455;52.710;6.502;2023-03-21T08:57:35;34.67;;;16.15;;
52554;SDS011;38455;52.710;6.502;2023-03-21T09:00:01;33.08;;;17.15;;
52554;SDS011;38455;52.710;6.502;2023-03-21T09:02:31;33.22;;;15.98;;
52554;SDS011;38455;52.710;6.502;2023-03-21T09:04:57;30.83;;;16.55;;
52554;SDS011;38455;52.710;6.502;2023-03-21T09:07:23;32.33;;;15.63;;
52554;SDS011;38455;52.710;6.502;2023-03-21T09:09:50;26.38;;;14.90;;
52554;SDS011;38455;52.710;6.502;2023-03-21T09:12:17;30.05;;;15.43;;
52554;SDS011;38455;52.710;6.502;2023-03-21T09:14:43;30.38;;;14.90;;
52554;SDS011;38455;52.710;6.502;2023-03-21T09:17:09;32.22;;;14.93;;
52554;SDS011;38455;52.710;6.502;2023-03-21T09:19:35;27.70;;;15.40;;
52554;SDS011;38455;52.710;6.502;2023-03-21T09:22:02;33.13;;;16.10;;
52554;SDS011;38455;52.710;6.502;2023-03-21T09:24:28;36.08;;;15.32;;
52554;SDS011;38455;52.710;6.502;2023-03-21T09:26:55;32.58;;;15.40;;
52554;SDS011;38455;52.710;6.502;2023-03-21T09:29:21;28.88;;;14.82;;
52554;SDS011;38455;52.710;6.502;2023-03-21T09:31:47;29.65;;;14.60;;
52554;SDS011;38455;52.710;6.502;2023-03-21T09:34:13;28.05;;;15.70;;
52554;SDS011;38455;52.710;6.502;2023-03-21T09:36:39;29.75;;;14.80;;
52554;SDS011;38455;52.710;6.502;2023-03-21T09:39:06;29.52;;;15.95;;
52554;SDS011;38455;52.710;6.502;2023-03-21T09:41:56;31.42;;;14.77;;
52554;SDS011;38455;52.710;6.502;2023-03-21T09:49:46;25.17;;;13.43;;
52554;SDS011;38455;52.710;6.502;2023-03-21T09:52:21;30.92;;;15.40;;
52554;SDS011;38455;52.710;6.502;2023-03-21T09:54:53;31.98;;;16.70;;
52554;SDS011;38455;52.710;6.502;2023-03-21T09:59:52;24.73;;;13.15;;
52554;SDS011;38455;52.710;6.502;2023-03-21T10:05:37;24.25;;;14.23;;
52554;SDS011;38455;52.710;6.502;2023-03-21T10:08:06;25.75;;;12.90;;
52554;SDS011;38455;52.710;6.502;2023-03-21T10:10:44;27.05;;;12.15;;
52554;SDS011;38455;52.710;6.502;2023-03-21T10:13:18;22.73;;;12.48;;
52554;SDS011;38455;52.710;6.502;2023-03-21T10:15:57;21.15;;;12.05;;
52554;SDS011;38455;52.710;6.502;2023-03-21T10:18:26;28.38;;;14.82;;
52554;SDS011;38455;52.710;6.502;2023-03-21T10:20:55;28.98;;;13.18;;
52554;SDS011;38455;52.710;6.502;2023-03-21T10:23:21;24.65;;;11.75;;
52554;SDS011;38455;52.710;6.502;2023-03-21T10:25:53;29.67;;;13.63;;
52554;SDS011;38455;52.710;6.502;2023-03-21T10:28:27;25.13;;;13.05;;
52554;SDS011;38455;52.710;6.502;2023-03-21T10:30:57;23.17;;;12.48;;
52554;SDS011;38455;52.710;6.502;2023-03-21T10:33:36;22.27;;;11.73;;
52554;SDS011;38455;52.710;6.502;2023-03-21T10:36:08;20.77;;;11.52;;
52554;SDS011;38455;52.710;6.502;2023-03-21T10:38:43;26.90;;;12.98;;
52554;SDS011;38455;52.710;6.502;2023-03-21T10:41:21;22.90;;;12.75;;
52554;SDS011;38455;52.710;6.502;2023-03-21T10:44:02;26.77;;;12.68;;
52554;SDS011;38455;52.710;6.502;2023-03-21T10:46:30;23.90;;;13.57;;
52554;SDS011;38455;52.710;6.502;2023-03-21T10:48:57;26.42;;;13.15;;
52554;SDS011;38455;52.710;6.502;2023-03-21T10:51:27;23.15;;;12.95;;
52554;SDS011;38455;52.710;6.502;2023-03-21T10:53:57;21.30;;;12.45;;
52554;SDS011;38455;52.710;6.502;2023-03-21T10:56:28;23.75;;;13.18;;
52554;SDS011;38455;52.710;6.502;2023-03-21T10:58:57;26.25;;;13.70;;
52554;SDS011;38455;52.710;6.502;2023-03-21T11:01:30;21.83;;;12.23;;
52554;SDS011;38455;52.710;6.502;2023-03-21T11:04:15;25.13;;;13.48;;
52554;SDS011;38455;52.710;6.502;2023-03-21T11:06:43;23.13;;;12.48;;
52554;SDS011;38455;52.710;6.502;2023-03-21T11:09:16;18.33;;;11.18;;
52554;SDS011;38455;52.710;6.502;2023-03-21T11:11:49;19.80;;;11.25;;
52554;SDS011;38455;52.710;6.502;2023-03-21T11:14:36;20.77;;;11.00;;
52554;SDS011;38455;52.710;6.502;2023-03-21T11:19:51;18.23;;;9.63;;
52554;SDS011;38455;52.710;6.502;2023-03-21T11:22:24;17.67;;;9.45;;
52554;SDS011;38455;52.710;6.502;2023-03-21T11:25:00;16.75;;;8.52;;
52554;SDS011;38455;52.710;6.502;2023-03-21T11:27:30;15.95;;;8.13;;
52554;SDS011;38455;52.710;6.502;2023-03-21T11:29:57;16.23;;;8.07;;
52554;SDS011;38455;52.710;6.502;2023-03-21T11:32:49;13.57;;;8.20;;
52554;SDS011;38455;52.710;6.502;2023-03-21T11:35:17;17.33;;;8.35;;
52554;SDS011;38455;52.710;6.502;2023-03-21T11:37:46;18.10;;;8.63;;
52554;SDS011;38455;52.710;6.502;2023-03-21T11:47:53;13.45;;;6.95;;
52554;SDS011;38455;52.710;6.502;2023-03-21T11:50:39;13.75;;;6.95;;
52554;SDS011;38455;52.710;6.502;2023-03-21T11:53:16;13.40;;;7.10;;
52554;SDS011;38455;52.710;6.502;2023-03-21T12:06:52;14.70;;;6.68;;
52554;SDS011;38455;52.710;6.502;2023-03-21T12:23:40;13.85;;;6.40;;
52554;SDS011;38455;52.710;6.502;2023-03-21T12:37:34;12.10;;;6.80;;
52554;SDS011;38455;52.710;6.502;2023-03-21T12:45:42;12.63;;;7.00;;
52554;SDS011;38455;52.710;6.502;2023-03-21T12:48:14;13.18;;;7.63;;
52554;SDS011;38455;52.710;6.502;2023-03-21T12:50:49;13.73;;;6.85;;
52554;SDS011;38455;52.710;6.502;2023-03-21T12:56:08;12.18;;;6.90;;
52554;SDS011;38455;52.710;6.502;2023-03-21T12:58:41;12.45;;;6.43;;
52554;SDS011;38455;52.710;6.502;2023-03-21T13:01:14;16.35;;;7.25;;
52554;SDS011;38455;52.710;6.502;2023-03-21T13:03:43;17.38;;;7.07;;
52554;SDS011;38455;52.710;6.502;2023-03-21T13:06:17;13.75;;;6.80;;
52554;SDS011;38455;52.710;6.502;2023-03-21T13:11:28;14.65;;;7.07;;
52554;SDS011;38455;52.710;6.502;2023-03-21T13:16:38;12.10;;;6.57;;
52554;SDS011;38455;52.710;6.502;2023-03-21T13:21:45;11.38;;;7.57;;
52554;SDS011;38455;52.710;6.502;2023-03-21T13:37:37;16.88;;;7.50;;
52554;SDS011;38455;52.710;6.502;2023-03-21T13:40:27;13.07;;;6.88;;
52554;SDS011;38455;52.710;6.502;2023-03-21T13:45:56;10.63;;;6.75;;
52554;SDS011;38455;52.710;6.502;2023-03-21T13:48:53;11.77;;;6.30;;
52554;SDS011;38455;52.710;6.502;2023-03-21T13:54:44;12.05;;;7.00;;
52554;SDS011;38455;52.710;6.502;2023-03-21T13:56:58;11.82;;;6.88;;
52554;SDS011;38455;52.710;6.502;2023-03-21T14:02:03;12.80;;;6.27;;
52554;SDS011;38455;52.710;6.502;2023-03-21T14:04:41;18.75;;;7.55;;
52554;SDS011;38455;52.710;6.502;2023-03-21T14:07:15;19.50;;;8.20;;
52554;SDS011;38455;52.710;6.502;2023-03-21T14:09:51;15.25;;;6.47;;
52554;SDS011;38455;52.710;6.502;2023-03-21T14:12:23;11.05;;;6.40;;
52554;SDS011;38455;52.710;6.502;2023-03-21T14:14:53;12.25;;;6.47;;
52554;SDS011;38455;52.710;6.502;2023-03-21T14:17:31;15.07;;;6.28;;
52554;SDS011;38455;52.710;6.502;2023-03-21T14:20:07;12.60;;;6.40;;
52554;SDS011;38455;52.710;6.502;2023-03-21T14:22:40;14.15;;;6.60;;
52554;SDS011;38455;52.710;6.502;2023-03-21T14:25:07;18.02;;;6.63;;
52554;SDS011;38455;52.710;6.502;2023-03-21T14:27:37;11.10;;;6.35;;
52554;SDS011;38455;52.710;6.502;2023-03-21T14:30:10;11.50;;;6.75;;
52554;SDS011;38455;52.710;6.502;2023-03-21T14:32:43;14.45;;;6.88;;
52554;SDS011;38455;52.710;6.502;2023-03-21T14:35:11;12.52;;;6.95;;
52554;SDS011;38455;52.710;6.502;2023-03-21T14:37:39;15.18;;;6.25;;
52554;SDS011;38455;52.710;6.502;2023-03-21T14:43:10;12.77;;;6.25;;
52554;SDS011;38455;52.710;6.502;2023-03-21T14:45:37;11.48;;;7.05;;
52554;SDS011;38455;52.710;6.502;2023-03-21T14:48:13;12.68;;;6.45;;
52554;SDS011;38455;52.710;6.502;2023-03-21T14:53:40;14.27;;;6.75;;
52554;SDS011;38455;52.710;6.502;2023-03-21T14:58:46;11.68;;;6.53;;
52554;SDS011;38455;52.710;6.502;2023-03-21T15:01:14;13.13;;;6.97;;
52554;SDS011;38455;52.710;6.502;2023-03-21T15:03:45;12.45;;;6.43;;
52554;SDS011;38455;52.710;6.502;2023-03-21T15:06:13;12.57;;;6.45;;
52554;SDS011;38455;52.710;6.502;2023-03-21T15:08:51;14.48;;;7.50;;
52554;SDS011;38455;52.710;6.502;2023-03-21T15:11:29;10.25;;;6.53;;
52554;SDS011;38455;52.710;6.502;2023-03-21T15:14:02;12.00;;;7.82;;
52554;SDS011;38455;52.710;6.502;2023-03-21T15:16:31;10.38;;;6.65;;
52554;SDS011;38455;52.710;6.502;2023-03-21T15:18:58;14.85;;;6.53;;
52554;SDS011;38455;52.710;6.502;2023-03-21T15:21:26;9.38;;;5.95;;
52554;SDS011;38455;52.710;6.502;2023-03-21T15:24:00;14.93;;;6.88;;
52554;SDS011;38455;52.710;6.502;2023-03-21T15:26:38;14.73;;;6.78;;
52554;SDS011;38455;52.710;6.502;2023-03-21T15:29:08;12.77;;;7.20;;
52554;SDS011;38455;52.710;6.502;2023-03-21T15:31:35;10.68;;;6.47;;
52554;SDS011;38455;52.710;6.502;2023-03-21T15:34:03;14.90;;;6.60;;
52554;SDS011;38455;52.710;6.502;2023-03-21T15:36:41;11.15;;;6.22;;
52554;SDS011;38455;52.710;6.502;2023-03-21T15:39:11;13.48;;;7.68;;
52554;SDS011;38455;52.710;6.502;2023-03-21T15:41:40;13.82;;;7.18;;
52554;SDS011;38455;52.710;6.502;2023-03-21T15:54:21;13.48;;;6.80;;
52554;SDS011;38455;52.710;6.502;2023-03-21T15:57:03;13.23;;;7.72;;
52554;SDS011;38455;52.710;6.502;2023-03-21T15:59:40;13.45;;;7.28;;
52554;SDS011;38455;52.710;6.502;2023-03-21T16:02:18;12.63;;;7.28;;
52554;SDS011;38455;52.710;6.502;2023-03-21T16:04:56;12.63;;;7.13;;
52554;SDS011;38455;52.710;6.502;2023-03-21T16:07:25;12.32;;;7.38;;
52554;SDS011;38455;52.710;6.502;2023-03-21T16:09:56;11.10;;;7.53;;
52554;SDS011;38455;52.710;6.502;2023-03-21T16:12:23;11.93;;;7.28;;
52554;SDS011;38455;52.710;6.502;2023-03-21T16:14:49;10.27;;;6.95;;
52554;SDS011;38455;52.710;6.502;2023-03-21T16:17:21;12.68;;;7.18;;
52554;SDS011;38455;52.710;6.502;2023-03-21T16:19:54;12.25;;;7.60;;
52554;SDS011;38455;52.710;6.502;2023-03-21T16:22:20;12.20;;;7.30;;
52554;SDS011;38455;52.710;6.502;2023-03-21T16:24:46;11.57;;;7.07;;
52554;SDS011;38455;52.710;6.502;2023-03-21T16:27:12;12.15;;;7.65;;
52554;SDS011;38455;52.710;6.502;2023-03-21T16:29:41;11.20;;;7.10;;
52554;SDS011;38455;52.710;6.502;2023-03-21T16:32:09;16.90;;;7.50;;
52554;SDS011;38455;52.710;6.502;2023-03-21T16:34:39;13.10;;;7.13;;
52554;SDS011;38455;52.710;6.502;2023-03-21T16:37:08;13.50;;;7.55;;
52554;SDS011;38455;52.710;6.502;2023-03-21T16:39:35;14.10;;;8.70;;
52554;SDS011;38455;52.710;6.502;2023-03-21T16:42:00;12.73;;;8.88;;
52554;SDS011;38455;52.710;6.502;2023-03-21T16:44:26;13.82;;;8.68;;
52554;SDS011;38455;52.710;6.502;2023-03-21T16:46:52;14.85;;;8.90;;
52554;SDS011;38455;52.710;6.502;2023-03-21T16:49:25;17.50;;;9.00;;
52554;SDS011;38455;52.710;6.502;2023-03-21T16:51:52;13.70;;;9.05;;
52554;SDS011;38455;52.710;6.502;2023-03-21T16:54:19;15.05;;;8.48;;
52554;SDS011;38455;52.710;6.502;2023-03-21T16:56:49;15.50;;;9.20;;
52554;SDS011;38455;52.710;6.502;2023-03-21T16:59:20;15.87;;;8.17;;
52554;SDS011;38455;52.710;6.502;2023-03-21T17:01:46;12.20;;;8.27;;
52554;SDS011;38455;52.710;6.502;2023-03-21T17:04:13;16.42;;;8.63;;
52554;SDS011;38455;52.710;6.502;2023-03-21T17:06:46;15.98;;;8.93;;
52554;SDS011;38455;52.710;6.502;2023-03-21T17:09:15;17.80;;;9.17;;
52554;SDS011;38455;52.710;6.502;2023-03-21T17:11:42;15.75;;;9.52;;
52554;SDS011;38455;52.710;6.502;2023-03-21T17:14:09;19.23;;;10.50;;
52554;SDS011;38455;52.710;6.502;2023-03-21T17:16:36;16.40;;;12.77;;
52554;SDS011;38455;52.710;6.502;2023-03-21T17:19:09;20.45;;;14.43;;
52554;SDS011;38455;52.710;6.502;2023-03-21T17:21:39;14.52;;;8.70;;
52554;SDS011;38455;52.710;6.502;2023-03-21T17:24:06;15.05;;;9.20;;